createdAt,value
2018-04-10T00:00:35.796Z,80.93
2018-04-10T00:01:45.746Z,80.74
2018-04-10T00:02:55.453Z,80.55
2018-04-10T00:04:05.403Z,80.46
2018-04-10T00:05:15.368Z,80.17
2018-04-10T00:06:25.338Z,80.17
2018-04-10T00:07:35.054Z,80.93
2018-04-10T00:08:45.028Z,80.84
2018-04-10T00:09:54.730Z,80.84
2018-04-10T00:11:04.697Z,80.74
2018-04-10T00:12:14.658Z,80.65
2018-04-10T00:13:24.619Z,80.84
2018-04-10T00:14:34.577Z,81.51
2018-04-10T00:15:44.538Z,81.32
2018-04-10T00:16:54.492Z,81.03
2018-04-10T00:18:04.194Z,81.85
2018-04-10T00:19:14.161Z,81.95
2018-04-10T00:20:24.130Z,81.76
2018-04-10T00:21:34.089Z,82.75
2018-04-10T00:22:43.791Z,82.42
2018-04-10T00:23:53.238Z,82.42
2018-04-10T00:25:02.945Z,81.95
2018-04-10T00:26:12.915Z,82.61
2018-04-10T00:27:22.987Z,82.61
2018-04-10T00:28:32.939Z,82.61
2018-04-10T00:29:42.891Z,82.71
2018-04-10T00:30:52.584Z,82.23
2018-04-10T00:32:02.286Z,82.42
2018-04-10T00:33:12.261Z,82.81
2018-04-10T00:34:22.216Z,82.9
2018-04-10T00:35:31.929Z,83
2018-04-10T00:36:41.899Z,82.52
2018-04-10T00:37:51.855Z,81.95
2018-04-10T00:39:01.825Z,82.14
2018-04-10T00:40:11.805Z,82.61
2018-04-10T00:41:21.773Z,82.52
2018-04-10T00:42:31.481Z,82.71
2018-04-10T00:43:41.449Z,82.52
2018-04-10T00:44:51.420Z,82.81
2018-04-10T00:46:01.607Z,82.52
2018-04-10T00:47:11.576Z,82.9
2018-04-10T00:48:21.539Z,82.52
2018-04-10T00:49:31.485Z,83.28
2018-04-10T00:50:41.440Z,82.9
2018-04-10T00:51:51.403Z,83.47
2018-04-10T00:53:01.379Z,83.18
2018-04-10T00:54:11.086Z,82.9
2018-04-10T00:55:21.043Z,83.18
2018-04-10T00:56:30.742Z,83.24
2018-04-10T00:57:40.708Z,83.91
2018-04-10T00:58:50.673Z,84.58
2018-04-10T01:00:00.374Z,84.39
2018-04-10T01:01:10.369Z,84.39
2018-04-10T01:02:20.435Z,84.58
2018-04-10T01:03:30.417Z,84.67
2018-04-10T01:04:39.862Z,84.77
2018-04-10T01:05:49.831Z,84.77
2018-04-10T01:06:59.530Z,85.53
2018-04-10T01:08:09.498Z,84.96
2018-04-10T01:09:19.464Z,85.63
2018-04-10T01:10:29.426Z,85.53
2018-04-10T01:11:39.137Z,85.53
2018-04-10T01:12:49.100Z,85.53
2018-04-10T01:13:59.060Z,85.63
2018-04-10T01:15:08.758Z,85.63
2018-04-10T01:16:18.719Z,85.91
2018-04-10T01:17:28.415Z,85.63
2018-04-10T01:18:38.384Z,85.82
2018-04-10T01:19:48.076Z,86.1
2018-04-10T01:20:57.776Z,85.34
2018-04-10T01:22:07.754Z,86.68
2018-04-10T01:23:17.718Z,86.39
2018-04-10T01:24:27.688Z,86.68
2018-04-10T01:25:37.387Z,86.77
2018-04-10T01:26:47.337Z,85.91
2018-04-10T01:27:57.040Z,85.91
2018-04-10T01:29:07.004Z,85.82
2018-04-10T01:30:16.453Z,85.91
2018-04-10T01:31:26.162Z,86.01
2018-04-10T01:32:35.868Z,86.3
2018-04-10T01:33:45.563Z,87.06
2018-04-10T01:34:55.005Z,86.3
2018-04-10T01:36:04.958Z,86.58
2018-04-10T01:37:14.650Z,86.2
2018-04-10T01:38:24.606Z,86.58
2018-04-10T01:39:34.576Z,86.87
2018-04-10T01:40:44.284Z,87.02
2018-04-10T01:41:54.002Z,86.63
2018-04-10T01:43:03.708Z,87.06
2018-04-10T01:44:13.660Z,87.4
2018-04-10T01:45:23.352Z,88.16
2018-04-10T01:46:33.312Z,87.4
2018-04-10T01:47:43.286Z,87.87
2018-04-10T01:48:53.263Z,88.16
2018-04-10T01:50:03.226Z,88.16
2018-04-10T01:51:13.181Z,88.16
2018-04-10T01:52:23.150Z,88.16
2018-04-10T01:53:33.149Z,87.97
2018-04-10T01:54:43.107Z,88.45
2018-04-10T01:55:53.065Z,88.35
2018-04-10T01:57:03.013Z,88.35
2018-04-10T01:58:12.723Z,89.02
2018-04-10T01:59:22.683Z,89.02
2018-04-10T02:00:32.637Z,89.02
2018-04-10T02:01:42.603Z,88.83
2018-04-10T02:02:52.566Z,87.97
2018-04-10T02:04:02.525Z,88.16
2018-04-10T02:05:12.475Z,88.92
2018-04-10T02:06:21.920Z,88.64
2018-04-10T02:07:31.880Z,89.12
2018-04-10T02:08:41.842Z,89.5
2018-04-10T02:09:51.847Z,89.02
2018-04-10T02:11:01.802Z,88.45
2018-04-10T02:12:11.754Z,89.02
2018-04-10T02:13:21.449Z,89.02
2018-04-10T02:14:31.154Z,88.83
2018-04-10T02:15:41.130Z,88.73
2018-04-10T02:16:50.829Z,88.83
2018-04-10T02:18:00.539Z,88.83
2018-04-10T02:19:10.509Z,88.83
2018-04-10T02:20:20.211Z,89.21
2018-04-10T02:21:30.198Z,89.12
2018-04-10T02:22:40.152Z,89.4
2018-04-10T02:23:49.848Z,89.5
2018-04-10T02:24:59.821Z,88.92
2018-04-10T02:26:09.855Z,89.59
2018-04-10T02:27:19.559Z,89.5
2018-04-10T02:28:29.542Z,88.83
2018-04-10T02:29:39.505Z,89.02
2018-04-10T02:30:49.469Z,89.02
2018-04-10T02:31:59.164Z,89.21
2018-04-10T02:33:09.134Z,89.5
2018-04-10T02:34:18.836Z,90.07
2018-04-10T02:35:28.538Z,89.88
2018-04-10T02:36:38.245Z,90.07
2018-04-10T02:37:48.202Z,89.5
2018-04-10T02:38:57.916Z,89.5
2018-04-10T02:40:07.881Z,89.69
2018-04-10T02:41:17.862Z,89.69
2018-04-10T02:42:27.589Z,90.03
2018-04-10T02:43:37.311Z,89.97
2018-04-10T02:44:47.021Z,90.03
2018-04-10T02:45:56.722Z,90.59
2018-04-10T02:47:06.686Z,90.69
2018-04-10T02:48:16.400Z,90.22
2018-04-10T02:49:26.358Z,90.69
2018-04-10T02:50:36.323Z,91.27
2018-04-10T02:51:46.312Z,91.17
2018-04-10T02:52:56.274Z,91.07
2018-04-10T02:54:06.240Z,91.46
2018-04-10T02:55:16.192Z,91.74
2018-04-10T02:56:26.145Z,91.64
2018-04-10T02:57:35.841Z,92.22
2018-04-10T02:58:45.799Z,92.41
2018-04-10T02:59:55.762Z,92.5
2018-04-10T03:01:05.712Z,92.41
2018-04-10T03:02:15.423Z,91.93
2018-04-10T03:03:25.383Z,92.32
2018-04-10T03:04:35.341Z,92.88
2018-04-10T03:05:45.052Z,93.36
2018-04-10T03:06:55.015Z,92.88
2018-04-10T03:08:04.715Z,93.55
2018-04-10T03:09:14.432Z,93.36
2018-04-10T03:10:24.390Z,93.36
2018-04-10T03:11:34.348Z,93.55
2018-04-10T03:12:44.325Z,92.88
2018-04-10T03:13:54.282Z,93.51
2018-04-10T03:15:03.983Z,94.03
2018-04-10T03:16:13.938Z,94.03
2018-04-10T03:17:23.895Z,94.03
2018-04-10T03:18:33.852Z,93.55
2018-04-10T03:19:43.808Z,93.55
2018-04-10T03:20:53.771Z,93.93
2018-04-10T03:22:03.736Z,94.65
2018-04-10T03:23:13.434Z,94.03
2018-04-10T03:24:23.396Z,94.51
2018-04-10T03:25:33.358Z,94.46
2018-04-10T03:26:43.054Z,94.27
2018-04-10T03:27:52.755Z,94.37
2018-04-10T03:29:02.196Z,94.93
2018-04-10T03:30:12.158Z,94.84
2018-04-10T03:31:21.854Z,94.93
2018-04-10T03:32:31.806Z,95.22
2018-04-10T03:33:41.526Z,94.84
2018-04-10T03:34:51.483Z,95.12
2018-04-10T03:36:01.468Z,95.32
2018-04-10T03:37:11.449Z,95.03
2018-04-10T03:38:20.628Z,94.93
2018-04-10T03:39:30.113Z,94.74
2018-04-10T03:40:40.079Z,94.84
2018-04-10T03:41:50.036Z,95.51
2018-04-10T03:43:00.000Z,95.22
2018-04-10T03:44:09.956Z,95.41
2018-04-10T03:45:19.915Z,95.51
2018-04-10T03:46:29.618Z,95.61
2018-04-10T03:47:39.584Z,95.03
2018-04-10T03:48:49.543Z,95.32
2018-04-10T03:49:59.514Z,95.79
2018-04-10T03:51:09.502Z,96.17
2018-04-10T03:52:18.957Z,95.22
2018-04-10T03:53:28.923Z,95.22
2018-04-10T03:54:38.639Z,95.89
2018-04-10T03:55:48.664Z,96.27
2018-04-10T03:56:58.669Z,95.89
2018-04-10T03:58:08.388Z,96.08
2018-04-10T04:00:09.383Z,95.79
2018-04-10T04:01:19.339Z,95.89
2018-04-10T04:02:29.043Z,96.36
2018-04-10T04:03:39.002Z,96.56
2018-04-10T04:04:48.706Z,96.27
2018-04-10T04:05:58.415Z,95.98
2018-04-10T04:07:07.871Z,96.27
2018-04-10T04:08:17.580Z,96.36
2018-04-10T04:09:27.542Z,96.08
2018-04-10T04:10:37.260Z,95.79
2018-04-10T04:11:47.225Z,96.46
2018-04-10T04:12:56.933Z,96.46
2018-04-10T04:14:06.883Z,96.27
2018-04-10T04:15:17.504Z,96.17
2018-04-10T04:16:27.197Z,96.65
2018-04-10T04:17:37.154Z,96.56
2018-04-10T04:18:46.861Z,96.46
2018-04-10T04:19:56.567Z,96.08
2018-04-10T04:21:06.526Z,96.46
2018-04-10T04:22:16.479Z,95.79
2018-04-10T04:23:26.444Z,95.79
2018-04-10T04:24:36.408Z,95.89
2018-04-10T04:25:46.100Z,95.7
2018-04-10T04:26:56.068Z,96.17
2018-04-10T04:28:06.021Z,96.65
2018-04-10T04:29:15.724Z,96.46
2018-04-10T04:30:25.682Z,96.56
2018-04-10T04:31:35.650Z,95.98
2018-04-10T04:32:45.624Z,96.46
2018-04-10T04:33:55.346Z,96.36
2018-04-10T04:35:05.291Z,96.08
2018-04-10T04:36:15.246Z,96.36
2018-04-10T04:37:24.690Z,96.36
2018-04-10T04:38:34.410Z,95.79
2018-04-10T04:39:44.383Z,96.75
2018-04-10T04:40:54.093Z,96.36
2018-04-10T04:42:04.058Z,96.27
2018-04-10T04:43:14.014Z,96.27
2018-04-10T04:44:23.974Z,95.89
2018-04-10T04:45:33.929Z,96.65
2018-04-10T04:46:43.900Z,96.27
2018-04-10T04:47:53.913Z,96.08
2018-04-10T04:49:03.656Z,96.22
2018-04-10T04:50:13.617Z,96.56
2018-04-10T04:51:23.310Z,95.98
2018-04-10T04:52:33.001Z,95.98
2018-04-10T04:53:42.969Z,97.03
2018-04-10T04:54:52.673Z,96.75
2018-04-10T04:56:02.623Z,96.13
2018-04-10T04:57:12.330Z,96.08
2018-04-10T04:58:22.030Z,96.32
2018-04-10T04:59:31.986Z,96.22
2018-04-10T05:00:42.050Z,96.36
2018-04-10T05:01:51.754Z,95.89
2018-04-10T05:03:01.738Z,96.36
2018-04-10T05:04:11.461Z,95.94
2018-04-10T05:05:21.166Z,96.27
2018-04-10T05:06:31.126Z,95.98
2018-04-10T05:07:41.086Z,96.13
2018-04-10T05:08:50.790Z,95.37
2018-04-10T05:10:00.751Z,95.27
2018-04-10T05:11:10.193Z,95.46
2018-04-10T05:12:20.153Z,95.75
2018-04-10T05:13:29.869Z,95.84
2018-04-10T05:14:39.825Z,95.37
2018-04-10T05:15:49.783Z,95.08
2018-04-10T05:16:59.733Z,95.27
2018-04-10T05:18:09.702Z,95.27
2018-04-10T05:19:19.430Z,94.98
2018-04-10T05:20:29.383Z,95.37
2018-04-10T05:21:39.092Z,95.27
2018-04-10T05:22:48.796Z,95.37
2018-04-10T05:23:58.570Z,95.37
2018-04-10T05:25:08.280Z,95.46
2018-04-10T05:26:18.247Z,94.79
2018-04-10T05:27:27.963Z,94.6
2018-04-10T05:28:37.937Z,94.12
2018-04-10T05:29:47.641Z,93.84
2018-04-10T05:30:57.726Z,94.12
2018-04-10T05:32:07.196Z,93.65
2018-04-10T05:33:17.186Z,93.65
2018-04-10T05:34:26.913Z,94.12
2018-04-10T05:35:36.360Z,94.03
2018-04-10T05:36:46.419Z,93.84
2018-04-10T05:37:56.126Z,93.27
2018-04-10T05:39:05.845Z,93.22
2018-04-10T05:40:15.616Z,93.27
2018-04-10T05:41:25.602Z,93.51
2018-04-10T05:42:35.590Z,93.51
2018-04-10T05:43:45.307Z,93.22
2018-04-10T05:44:55.532Z,93.22
2018-04-10T05:46:05.527Z,92.74
2018-04-10T05:47:15.248Z,92.93
2018-04-10T05:48:25.228Z,93.02
2018-04-10T05:49:35.203Z,93.31
2018-04-10T05:50:44.945Z,92.55
2018-04-10T05:51:54.919Z,91.98
2018-04-10T05:53:04.946Z,91.88
2018-04-10T05:54:15.145Z,91.6
2018-04-10T05:55:25.157Z,91.78
2018-04-10T05:56:34.872Z,91.16
2018-04-10T05:57:44.838Z,90.78
2018-04-10T05:58:54.590Z,91.07
2018-04-10T06:00:04.328Z,90.78
2018-04-10T06:01:14.063Z,91.26
2018-04-10T06:02:24.062Z,90.88
2018-04-10T06:03:33.787Z,90.4
2018-04-10T06:04:43.780Z,90.59
2018-04-10T06:05:53.757Z,89.92
2018-04-10T06:07:03.756Z,90.02
2018-04-10T06:08:13.718Z,90.4
2018-04-10T06:09:23.687Z,89.92
2018-04-10T06:10:33.696Z,90.11
2018-04-10T06:11:43.697Z,89.45
2018-04-10T06:12:53.418Z,89.35
2018-04-10T06:14:03.386Z,89.54
2018-04-10T06:15:13.116Z,89.54
2018-04-10T06:16:23.079Z,89.25
2018-04-10T06:17:33.038Z,88.97
2018-04-10T06:18:43.006Z,88.87
2018-04-10T06:19:52.800Z,88.59
2018-04-10T06:21:02.781Z,88.92
2018-04-10T06:22:12.743Z,88.44
2018-04-10T06:23:22.761Z,87.96
2018-04-10T06:24:32.753Z,87.39
2018-04-10T06:25:42.721Z,87.58
2018-04-10T06:26:52.444Z,87.87
2018-04-10T06:28:02.431Z,87.58
2018-04-10T06:29:12.396Z,87.58
2018-04-10T06:30:22.361Z,87.68
2018-04-10T06:31:32.070Z,87.2
2018-04-10T06:32:41.782Z,86.82
2018-04-10T06:33:51.753Z,87.1
2018-04-10T06:35:01.190Z,86.67
2018-04-10T06:36:11.155Z,86.19
2018-04-10T06:37:21.191Z,85.52
2018-04-10T06:38:31.013Z,85.81
2018-04-10T06:39:40.720Z,85.81
2018-04-10T06:40:50.696Z,85.9
2018-04-10T06:42:00.398Z,85.42
2018-04-10T06:43:10.384Z,85.42
2018-04-10T06:44:20.382Z,84.56
2018-04-10T06:45:30.374Z,84.56
2018-04-10T06:46:40.091Z,84.66
2018-04-10T06:47:50.073Z,84.66
2018-04-10T06:49:00.042Z,85.14
2018-04-10T06:50:10.031Z,84.52
2018-04-10T06:51:20.015Z,84.23
2018-04-10T06:52:29.760Z,84.32
2018-04-10T06:53:39.739Z,83.84
2018-04-10T06:54:49.698Z,83.37
2018-04-10T06:55:59.706Z,83.17
2018-04-10T06:57:09.700Z,82.31
2018-04-10T06:58:19.660Z,82.51
2018-04-10T06:59:29.622Z,82.22
2018-04-10T07:00:39.595Z,82.22
2018-04-10T07:01:49.583Z,81.93
2018-04-10T07:02:59.777Z,81.3
2018-04-10T07:04:09.495Z,81.97
2018-04-10T07:05:19.460Z,81.11
2018-04-10T07:06:29.725Z,81.11
2018-04-10T07:07:39.695Z,81.49
2018-04-10T07:08:49.684Z,80.73
2018-04-10T07:09:59.676Z,80.82
2018-04-10T07:11:09.691Z,80.25
2018-04-10T07:12:19.650Z,80.25
2018-04-10T07:13:29.369Z,80.06
2018-04-10T07:14:39.383Z,80.38
2018-04-10T07:15:49.097Z,80.48
2018-04-10T07:16:59.066Z,79.62
2018-04-10T07:18:09.051Z,79.52
2018-04-10T07:19:19.009Z,79.24
2018-04-10T07:20:28.728Z,79.24
2018-04-10T07:21:38.709Z,79.52
2018-04-10T07:22:48.682Z,79.14
2018-04-10T07:23:58.652Z,78.95
2018-04-10T07:25:08.618Z,78.76
2018-04-10T07:26:18.328Z,78.57
2018-04-10T07:27:27.793Z,79.05
2018-04-10T07:28:37.759Z,78.99
2018-04-10T07:29:47.716Z,78.42
2018-04-10T07:30:56.917Z,78.61
2018-04-10T07:32:06.664Z,78.42
2018-04-10T07:33:16.638Z,77.75
2018-04-10T07:34:26.607Z,77.46
2018-04-10T07:35:36.857Z,77.36
2018-04-10T07:36:46.889Z,77.08
2018-04-10T07:37:56.890Z,77.26
2018-04-10T07:39:06.880Z,76.79
2018-04-10T07:40:16.856Z,77.21
2018-04-10T07:41:26.838Z,76.64
2018-04-10T07:42:36.809Z,77.11
2018-04-10T07:43:46.838Z,76.35
2018-04-10T07:44:56.547Z,75.39
2018-04-10T07:46:06.534Z,75.87
2018-04-10T07:47:16.273Z,75.29
2018-04-10T07:48:26.236Z,74.91
2018-04-10T07:49:36.241Z,75.29
2018-04-10T07:50:46.249Z,75.01
2018-04-10T07:51:56.252Z,74.82
2018-04-10T07:53:06.260Z,74.82
2018-04-10T07:54:15.994Z,75.04
2018-04-10T07:55:25.984Z,74.57
2018-04-10T07:56:35.491Z,74.76
2018-04-10T07:57:45.693Z,73.7
2018-04-10T07:58:55.658Z,73.13
2018-04-10T08:00:05.628Z,72.94
2018-04-10T08:01:15.612Z,73.16
2018-04-10T08:02:25.489Z,73.13
2018-04-10T08:03:35.906Z,72.59
2018-04-10T08:04:45.716Z,72.2
2018-04-10T08:05:55.907Z,72.3
2018-04-10T08:07:05.659Z,71.72
2018-04-10T08:08:15.693Z,72.01
2018-04-10T08:09:25.429Z,71.92
2018-04-10T08:10:35.454Z,72.11
2018-04-10T08:11:45.463Z,72.01
2018-04-10T08:12:55.456Z,71.86
2018-04-10T08:14:05.447Z,71.92
2018-04-10T08:15:15.182Z,71.19
2018-04-10T08:16:24.945Z,70.42
2018-04-10T08:17:34.682Z,70.99
2018-04-10T08:18:44.435Z,70.42
2018-04-10T08:19:54.261Z,69.65
2018-04-10T08:21:04.259Z,70.03
2018-04-10T08:22:14.067Z,69.78
2018-04-10T08:23:24.263Z,69.4
2018-04-10T08:24:33.973Z,68.82
2018-04-10T08:25:43.700Z,68.15
2018-04-10T08:26:53.476Z,67.9
2018-04-10T08:28:02.972Z,67.13
2018-04-10T08:29:12.438Z,66.58
2018-04-10T08:30:22.448Z,65.72
2018-04-10T08:31:32.210Z,64.31
2018-04-10T08:32:41.723Z,63.67
2018-04-10T08:33:51.697Z,63.09
2018-04-10T08:35:01.449Z,61.87
2018-04-10T08:36:11.435Z,62.06
2018-04-10T08:37:21.168Z,61.39
2018-04-10T08:38:31.177Z,61.29
2018-04-10T08:39:41.178Z,60.81
2018-04-10T08:40:51.222Z,61.04
2018-04-10T08:42:01.223Z,60.36
2018-04-10T08:43:10.971Z,59.59
2018-04-10T08:44:20.974Z,59.81
2018-04-10T08:45:30.972Z,59.43
2018-04-10T08:46:40.970Z,58.88
2018-04-10T08:47:50.463Z,58.49
2018-04-10T08:48:59.942Z,57.92
2018-04-10T08:50:09.936Z,57.75
2018-04-10T08:51:19.945Z,57.75
2018-04-10T08:52:29.671Z,56.88
2018-04-10T08:53:39.691Z,56.81
2018-04-10T08:54:49.922Z,56.04
2018-04-10T08:55:59.661Z,55.76
2018-04-10T08:57:09.665Z,55.2
2018-04-10T08:58:19.394Z,54.53
2018-04-10T08:59:29.134Z,54.24
2018-04-10T09:00:39.165Z,54.33
2018-04-10T09:01:48.892Z,55.01
2018-04-10T09:02:58.357Z,54.24
2018-04-10T09:04:08.390Z,54.43
2018-04-10T09:05:18.125Z,54.43
2018-04-10T09:06:28.107Z,54.53
2018-04-10T09:07:38.134Z,54.05
2018-04-10T09:08:48.136Z,53.85
2018-04-10T09:09:58.114Z,54.05
2018-04-10T09:11:08.127Z,53.85
2018-04-10T09:12:18.117Z,53.47
2018-04-10T09:13:28.097Z,53.37
2018-04-10T09:14:38.071Z,53.85
2018-04-10T09:15:48.066Z,54.05
2018-04-10T09:16:57.781Z,54.14
2018-04-10T09:18:07.818Z,54.05
2018-04-10T09:19:17.317Z,53.66
2018-04-10T09:20:27.334Z,53.66
2018-04-10T09:21:37.360Z,53.11
2018-04-10T09:22:47.348Z,53.11
2018-04-10T09:23:56.848Z,53.49
2018-04-10T09:25:06.583Z,52.81
2018-04-10T09:26:16.320Z,52.84
2018-04-10T09:27:26.566Z,51.68
2018-04-10T09:28:36.560Z,51.97
2018-04-10T09:29:46.296Z,52.33
2018-04-10T09:30:56.286Z,51.49
2018-04-10T09:32:06.264Z,50.93
2018-04-10T09:33:17.062Z,51.13
2018-04-10T09:34:27.065Z,51.32
2018-04-10T09:35:37.074Z,51.42
2018-04-10T09:36:46.562Z,50.93
2018-04-10T09:37:56.569Z,50.28
2018-04-10T09:39:06.306Z,49.32
2018-04-10T09:40:16.337Z,48.76
2018-04-10T09:41:26.340Z,49.24
2018-04-10T09:42:36.332Z,49.12
2018-04-10T09:43:46.500Z,49.12
2018-04-10T09:44:56.358Z,48.86
2018-04-10T09:46:06.347Z,48.47
2018-04-10T09:47:16.340Z,48.18
2018-04-10T09:48:26.072Z,47.24
2018-04-10T09:49:35.805Z,47.26
2018-04-10T09:50:45.553Z,46.97
2018-04-10T09:51:55.548Z,46.31
2018-04-10T09:53:05.532Z,46.31
2018-04-10T09:54:15.262Z,45.83
2018-04-10T09:55:25.011Z,46.31
2018-04-10T09:56:35.008Z,46.31
2018-04-10T09:57:44.987Z,46.8
2018-04-10T09:58:54.963Z,47.36
2018-04-10T10:00:04.977Z,46.19
2018-04-10T10:01:14.701Z,45.44
2018-04-10T10:02:24.416Z,44.61
2018-04-10T10:03:34.141Z,44.03
2018-04-10T10:04:44.136Z,44.23
2018-04-10T10:05:54.122Z,44.23
2018-04-10T10:07:04.104Z,43.84
2018-04-10T10:08:14.109Z,44.88
2018-04-10T10:09:23.613Z,45.64
2018-04-10T10:10:33.319Z,45.15
2018-04-10T10:11:43.307Z,44.98
2018-04-10T10:12:53.413Z,44.03
2018-04-10T10:14:03.262Z,43.54
2018-04-10T10:15:13.261Z,44.01
2018-04-10T10:16:23.004Z,43.62
2018-04-10T10:17:32.742Z,43.08
2018-04-10T10:18:42.476Z,42.79
2018-04-10T10:19:52.511Z,42.69
2018-04-10T10:21:02.610Z,43.45
2018-04-10T10:22:12.101Z,42.99
2018-04-10T10:23:22.078Z,42.4
2018-04-10T10:24:31.562Z,42.5
2018-04-10T10:25:41.572Z,43.16
2018-04-10T10:26:51.579Z,42.99
2018-04-10T10:28:01.122Z,42.69
2018-04-10T10:29:11.113Z,41.92
2018-04-10T10:30:21.092Z,42.23
2018-04-10T10:31:31.075Z,42.52
2018-04-10T10:32:41.069Z,42.79
2018-04-10T10:33:51.072Z,42.71
2018-04-10T10:35:01.068Z,42.6
2018-04-10T10:36:11.085Z,41.84
2018-04-10T10:37:21.152Z,41.74
2018-04-10T10:38:30.898Z,41.64
2018-04-10T10:39:40.879Z,41.57
2018-04-10T10:40:50.859Z,41.18
2018-04-10T10:42:00.861Z,41.01
2018-04-10T10:43:10.879Z,40.23
2018-04-10T10:44:20.886Z,39.84
2018-04-10T10:45:30.892Z,39.67
2018-04-10T10:46:40.880Z,39.55
2018-04-10T10:47:50.865Z,38.79
2018-04-10T10:49:00.631Z,39.28
2018-04-10T10:50:10.780Z,39.18
2018-04-10T10:51:20.523Z,39.94
2018-04-10T10:52:30.519Z,39.45
2018-04-10T10:53:40.503Z,39.65
2018-04-10T10:54:50.221Z,40.13
2018-04-10T10:56:00.210Z,40.11
2018-04-10T10:57:10.230Z,40.89
2018-04-10T10:58:19.970Z,40.31
2018-04-10T10:59:29.963Z,39.36
2018-04-10T11:00:39.758Z,39.76
2018-04-10T11:01:49.592Z,39.76
2018-04-10T11:02:59.592Z,40.13
2018-04-10T11:04:09.329Z,40.13
2018-04-10T11:05:18.804Z,40.23
2018-04-10T11:06:28.823Z,40.03
2018-04-10T11:07:38.927Z,39.75
2018-04-10T11:08:48.929Z,39.36
2018-04-10T11:09:58.929Z,39.57
2018-04-10T11:11:08.920Z,38.89
2018-04-10T11:12:18.939Z,38.13
2018-04-10T11:13:28.937Z,38.71
2018-04-10T11:14:38.990Z,39.08
2018-04-10T11:15:48.560Z,39.94
2018-04-10T11:16:58.349Z,39.84
2018-04-10T11:18:08.340Z,39.26
2018-04-10T11:19:18.334Z,38.79
2018-04-10T11:20:27.800Z,38.89
2018-04-10T11:21:37.808Z,39.37
2018-04-10T11:22:47.807Z,39.18
2018-04-10T11:23:57.791Z,39.86
2018-04-10T11:25:07.770Z,39.08
2018-04-10T11:26:17.505Z,38.5
2018-04-10T11:27:27.524Z,37.76
2018-04-10T11:28:37.258Z,37.66
2018-04-10T11:29:46.983Z,37.76
2018-04-10T11:30:56.731Z,37.1
2018-04-10T11:32:06.734Z,37.68
2018-04-10T11:33:16.458Z,37.18
2018-04-10T11:34:26.481Z,37
2018-04-10T11:35:36.238Z,37
2018-04-10T11:36:46.005Z,36.8
2018-04-10T11:37:56.005Z,36.33
2018-04-10T11:39:06.001Z,37.02
2018-04-10T11:40:15.834Z,36.9
2018-04-10T11:41:26.097Z,37.39
2018-04-10T11:42:35.854Z,38.03
2018-04-10T11:43:45.348Z,37.93
2018-04-10T11:44:55.343Z,38.21
2018-04-10T11:46:05.374Z,37.52
2018-04-10T11:47:15.427Z,37.35
2018-04-10T11:48:25.523Z,37.37
2018-04-10T11:49:35.725Z,37.08
2018-04-10T11:50:45.765Z,36.9
2018-04-10T11:51:55.497Z,36.51
2018-04-10T11:53:05.494Z,36.41
2018-04-10T11:54:15.700Z,36.69
2018-04-10T11:55:25.698Z,36.98
2018-04-10T11:56:35.710Z,37.08
2018-04-10T11:57:45.449Z,36.3
2018-04-10T11:58:55.233Z,36.4
2018-04-10T12:00:05.013Z,37.16
2018-04-10T12:01:15.057Z,35.91
2018-04-10T12:02:25.029Z,36.02
2018-04-10T12:03:34.535Z,35.73
2018-04-10T12:04:44.277Z,35.46
2018-04-10T12:05:54.015Z,35.36
2018-04-10T12:07:04.057Z,35.16
2018-04-10T12:08:14.126Z,35.06
2018-04-10T12:09:24.154Z,34.97
2018-04-10T12:10:34.158Z,35.15
2018-04-10T12:11:43.909Z,34.78
2018-04-10T12:12:53.633Z,34.68
2018-04-10T12:14:03.392Z,34.97
2018-04-10T12:15:13.414Z,34.68
2018-04-10T12:16:23.668Z,34.78
2018-04-10T12:17:33.658Z,34.78
2018-04-10T12:18:43.187Z,34.29
2018-04-10T12:19:53.216Z,34.5
2018-04-10T12:21:03.244Z,34.59
2018-04-10T12:22:13.240Z,33.92
2018-04-10T12:23:23.273Z,33.82
2018-04-10T12:24:33.280Z,32.96
2018-04-10T12:25:43.283Z,32.87
2018-04-10T12:26:53.287Z,32.29
2018-04-10T12:28:03.017Z,31.82
2018-04-10T12:29:13.061Z,31.05
2018-04-10T12:30:22.993Z,30.97
2018-04-10T12:31:32.709Z,30.38
2018-04-10T12:32:42.443Z,30.38
2018-04-10T12:33:52.432Z,30.37
2018-04-10T12:35:02.425Z,30.57
2018-04-10T12:36:12.408Z,30.54
2018-04-10T12:37:22.402Z,31.13
2018-04-10T12:38:32.416Z,31.41
2018-04-10T12:39:42.405Z,31.72
2018-04-10T12:40:52.133Z,31.6
2018-04-10T12:42:02.123Z,31.72
2018-04-10T12:43:12.124Z,31.45
2018-04-10T12:44:22.109Z,30.97
2018-04-10T12:45:31.852Z,30.58
2018-04-10T12:46:41.842Z,29.91
2018-04-10T12:47:51.838Z,30.12
2018-04-10T12:49:01.837Z,30.51
2018-04-10T12:50:11.845Z,29.93
2018-04-10T12:51:21.842Z,29.55
2018-04-10T12:52:31.885Z,29.63
2018-04-10T12:53:41.976Z,30.1
2018-04-10T12:54:51.482Z,31.25
2018-04-10T12:56:01.220Z,31.33
2018-04-10T12:57:11.213Z,31.43
2018-04-10T12:58:21.208Z,31.15
2018-04-10T12:59:31.449Z,31.13
2018-04-10T13:00:40.919Z,30.35
2018-04-10T13:01:50.892Z,30.27
2018-04-10T13:03:00.887Z,29.9
2018-04-10T13:04:10.614Z,29.91
2018-04-10T13:05:20.618Z,29.9
2018-04-10T13:06:30.627Z,30.47
2018-04-10T13:07:40.683Z,30.18
2018-04-10T13:08:50.666Z,30.47
2018-04-10T13:10:00.707Z,30.18
2018-04-10T13:11:10.734Z,31.04
2018-04-10T13:12:20.736Z,31.2
2018-04-10T13:13:30.818Z,30.24
2018-04-10T13:14:40.623Z,29.85
2018-04-10T13:15:50.358Z,29.46
2018-04-10T13:17:00.136Z,28.78
2018-04-10T13:18:10.136Z,27.93
2018-04-10T13:19:20.131Z,27.55
2018-04-10T13:20:29.880Z,28.04
2018-04-10T13:21:39.634Z,27.84
2018-04-10T13:22:49.359Z,28.04
2018-04-10T13:23:59.351Z,29.6
2018-04-10T13:25:09.340Z,29.67
2018-04-10T13:26:19.346Z,29.59
2018-04-10T13:27:29.084Z,29.49
2018-04-10T13:28:39.100Z,30.27
2018-04-10T13:29:49.114Z,30.26
2018-04-10T13:30:58.600Z,30.47
2018-04-10T13:32:08.598Z,30.76
2018-04-10T13:33:18.596Z,31.45
2018-04-10T13:34:28.653Z,32.11
2018-04-10T13:35:38.636Z,32.79
2018-04-10T13:36:48.650Z,32.68
2018-04-10T13:37:58.643Z,33.07
2018-04-10T13:39:08.749Z,33.46
2018-04-10T13:40:18.750Z,33.44
2018-04-10T13:41:28.725Z,33.56
2018-04-10T13:42:38.460Z,34.24
2018-04-10T13:43:48.562Z,33.95
2018-04-10T13:44:58.583Z,33.85
2018-04-10T13:46:08.572Z,32.89
2018-04-10T13:47:18.572Z,32.81
2018-04-10T13:48:28.557Z,32.43
2018-04-10T13:49:38.527Z,32.26
2018-04-10T13:50:48.501Z,31.88
2018-04-10T13:51:58.484Z,32.55
2018-04-10T13:53:08.214Z,32.84
2018-04-10T13:54:18.234Z,33.31
2018-04-10T13:55:28.364Z,33.89
2018-04-10T13:56:38.119Z,33.69
2018-04-10T13:57:48.108Z,34.38
2018-04-10T13:58:58.092Z,34.36
2018-04-10T14:00:07.856Z,34.75
2018-04-10T14:01:17.849Z,34.34
2018-04-10T14:02:27.831Z,34.36
2018-04-10T14:03:37.575Z,33.97
2018-04-10T14:04:47.376Z,33.79
2018-04-10T14:05:57.437Z,34.08
2018-04-10T14:07:07.445Z,34.45
2018-04-10T14:08:17.427Z,34.65
2018-04-10T14:09:27.408Z,34.92
2018-04-10T14:10:36.626Z,36.66
2018-04-10T14:11:46.396Z,37.77
2018-04-10T14:12:56.394Z,38.54
2018-04-10T14:14:06.440Z,39
2018-04-10T14:15:16.242Z,38.62
2018-04-10T14:16:25.977Z,38.34
2018-04-10T14:17:35.705Z,38.05
2018-04-10T14:18:45.718Z,37.68
2018-04-10T14:19:55.720Z,37.66
2018-04-10T14:21:05.694Z,37.76
2018-04-10T14:22:15.434Z,37.95
2018-04-10T14:23:25.423Z,37.95
2018-04-10T14:24:35.413Z,38.13
2018-04-10T14:25:44.627Z,37.66
2018-04-10T14:26:54.346Z,37.66
2018-04-10T14:28:04.068Z,37
2018-04-10T14:29:14.057Z,37.48
2018-04-10T14:30:24.033Z,37.27
2018-04-10T14:31:34.025Z,37.76
2018-04-10T14:32:44.117Z,37.66
2018-04-10T14:33:53.907Z,37.76
2018-04-10T14:35:03.880Z,36.4
2018-04-10T14:36:13.870Z,35.53
2018-04-10T14:37:23.894Z,35.06
2018-04-10T14:38:33.874Z,34.58
2018-04-10T14:39:43.853Z,34.68
2018-04-10T14:40:53.588Z,34.68
2018-04-10T14:42:03.325Z,35.26
2018-04-10T14:43:13.307Z,35.53
2018-04-10T14:44:23.300Z,35.73
2018-04-10T14:45:33.285Z,36
2018-04-10T14:46:43.257Z,35.81
2018-04-10T14:47:53.082Z,36.4
2018-04-10T14:49:03.059Z,36.4
2018-04-10T14:50:12.786Z,35.71
2018-04-10T14:51:22.994Z,35.91
2018-04-10T14:52:32.997Z,36.1
2018-04-10T14:53:42.979Z,35.91
2018-04-10T14:54:52.728Z,35.15
2018-04-10T14:56:02.727Z,35.63
2018-04-10T14:57:12.714Z,36
2018-04-10T14:58:22.701Z,35.8
2018-04-10T14:59:32.686Z,36.08
2018-04-10T15:00:42.462Z,35.91
2018-04-10T15:01:52.177Z,36.47
2018-04-10T15:03:01.644Z,36.28
2018-04-10T15:04:11.623Z,36.08